createdAt,value
2019-02-26T00:00:34.376Z,23.75
2019-02-26T00:03:04.640Z,24.65
2019-02-26T00:05:33.042Z,24.43
2019-02-26T00:08:02.675Z,25.10
2019-02-26T00:10:32.127Z,25.32
2019-02-26T00:13:01.168Z,25.68
2019-02-26T00:15:33.345Z,23.18
2019-02-26T00:17:59.580Z,24.90
2019-02-26T00:20:29.684Z,23.32
2019-02-26T00:22:59.710Z,25.90
2019-02-26T00:25:28.123Z,27.90
2019-02-26T00:27:58.510Z,25.45
2019-02-26T00:30:26.570Z,26.87
2019-02-26T00:32:55.373Z,25.80
2019-02-26T00:35:25.740Z,26.75
2019-02-26T00:37:55.685Z,25.12
2019-02-26T00:40:24.225Z,26.17
2019-02-26T00:42:54.602Z,38.00
2019-02-26T00:45:26.856Z,30.37
2019-02-26T00:47:52.688Z,25.70
2019-02-26T00:50:21.070Z,27.40
2019-02-26T00:52:49.513Z,29.80
2019-02-26T00:55:18.548Z,25.52
2019-02-26T00:57:46.954Z,29.30
2019-02-26T01:00:16.272Z,27.95
2019-02-26T01:02:44.663Z,27.58
2019-02-26T01:05:15.706Z,24.95
2019-02-26T01:07:46.698Z,25.70
2019-02-26T01:10:16.446Z,24.72
2019-02-26T01:12:44.646Z,25.20
2019-02-26T01:15:17.553Z,29.23
2019-02-26T01:17:46.119Z,26.17
2019-02-26T01:20:19.715Z,25.25
2019-02-26T01:22:48.364Z,26.35
2019-02-26T01:25:18.510Z,29.48
2019-02-26T01:27:48.197Z,24.02
2019-02-26T01:30:20.773Z,24.27
2019-02-26T01:32:47.000Z,25.43
2019-02-26T01:35:15.524Z,23.62
2019-02-26T01:37:43.934Z,25.43
2019-02-26T01:40:15.818Z,22.48
2019-02-26T01:42:47.231Z,27.48
2019-02-26T01:45:13.733Z,27.35
2019-02-26T01:47:42.915Z,26.93
2019-02-26T01:50:13.538Z,23.57
2019-02-26T01:52:42.908Z,24.15
2019-02-26T01:55:11.760Z,23.87
2019-02-26T01:57:42.662Z,24.77
2019-02-26T02:00:19.358Z,23.87
2019-02-26T02:02:47.735Z,24.55
2019-02-26T02:05:16.151Z,23.67
2019-02-26T02:07:46.765Z,21.70
2019-02-26T02:10:15.679Z,23.50
2019-02-26T02:12:44.156Z,22.98
2019-02-26T02:15:17.406Z,23.12
2019-02-26T02:17:45.003Z,25.68
2019-02-26T02:20:16.421Z,28.73
2019-02-26T02:22:45.739Z,30.15
2019-02-26T02:25:14.198Z,24.45
2019-02-26T02:27:42.693Z,24.32
2019-02-26T02:30:18.568Z,26.45
2019-02-26T02:32:43.757Z,24.77
2019-02-26T02:35:13.536Z,22.40
2019-02-26T02:37:42.500Z,23.38
2019-02-26T02:40:12.992Z,23.77
2019-02-26T02:42:43.163Z,21.15
2019-02-26T02:45:14.397Z,22.07
2019-02-26T02:47:42.405Z,22.13
2019-02-26T02:50:18.197Z,24.67
2019-02-26T02:52:45.236Z,22.73
2019-02-26T02:55:16.329Z,22.45
2019-02-26T02:57:43.721Z,20.97
2019-02-26T03:00:16.623Z,23.60
2019-02-26T03:02:46.755Z,24.70
2019-02-26T03:05:15.241Z,23.52
2019-02-26T03:07:46.073Z,22.58
2019-02-26T03:10:15.603Z,24.45
2019-02-26T03:12:47.766Z,24.92
2019-02-26T03:15:15.578Z,23.65
2019-02-26T03:17:43.986Z,22.35
2019-02-26T03:20:13.543Z,24.52
2019-02-26T03:22:45.549Z,25.57
2019-02-26T03:25:17.470Z,28.32
2019-02-26T03:27:46.356Z,22.90
2019-02-26T03:30:26.440Z,22.98
2019-02-26T03:32:52.184Z,22.00
2019-02-26T03:35:22.230Z,22.65
2019-02-26T03:37:51.704Z,21.55
2019-02-26T03:40:20.816Z,24.47
2019-02-26T03:42:49.581Z,22.22
2019-02-26T03:45:23.704Z,25.08
2019-02-26T03:47:48.141Z,25.65
2019-02-26T03:50:16.902Z,22.65
2019-02-26T03:52:45.352Z,23.32
2019-02-26T03:55:15.402Z,21.37
2019-02-26T03:57:47.350Z,20.90
2019-02-26T04:00:17.393Z,21.85
2019-02-26T04:02:48.368Z,22.15
2019-02-26T04:05:15.855Z,24.25
2019-02-26T04:07:44.251Z,24.90
2019-02-26T04:10:13.089Z,21.77
2019-02-26T04:12:42.254Z,26.82
2019-02-26T04:15:14.013Z,23.67
2019-02-26T04:17:42.392Z,25.08
2019-02-26T04:20:12.013Z,21.97
2019-02-26T04:22:42.902Z,22.02
2019-02-26T04:25:16.443Z,22.30
2019-02-26T04:27:59.042Z,22.22
2019-02-26T04:30:56.842Z,21.35
2019-02-26T04:33:58.925Z,22.45
2019-02-26T04:36:30.143Z,22.30
2019-02-26T04:39:19.022Z,21.48
2019-02-26T04:42:16.823Z,22.60
2019-02-26T04:45:09.504Z,23.75
2019-02-26T04:47:49.509Z,20.57
2019-02-26T04:50:17.150Z,20.57
2019-02-26T04:52:45.558Z,20.25
2019-02-26T04:55:13.966Z,20.90
2019-02-26T04:57:45.373Z,20.40
2019-02-26T05:00:12.449Z,22.82
2019-02-26T05:02:40.867Z,19.40
2019-02-26T05:05:09.265Z,19.77
2019-02-26T05:07:38.516Z,24.02
2019-02-26T05:10:08.477Z,23.10
2019-02-26T05:12:39.983Z,22.37
2019-02-26T05:15:11.544Z,26.17
2019-02-26T05:17:37.509Z,24.15
2019-02-26T05:20:09.592Z,22.07
2019-02-26T05:22:36.542Z,22.07
2019-02-26T05:25:07.433Z,22.35
2019-02-26T05:27:38.920Z,20.55
2019-02-26T05:30:09.940Z,21.40
2019-02-26T05:32:39.059Z,25.50
2019-02-26T05:35:07.470Z,20.85
2019-02-26T05:37:38.175Z,23.67
2019-02-26T05:40:09.523Z,21.27
2019-02-26T05:42:36.737Z,19.55
2019-02-26T05:45:08.973Z,22.95
2019-02-26T05:47:36.001Z,20.50
2019-02-26T05:50:12.971Z,19.40
2019-02-26T05:52:37.079Z,22.10
2019-02-26T05:55:05.514Z,26.17
2019-02-26T05:57:34.219Z,25.90
2019-02-26T06:00:02.983Z,22.52
2019-02-26T06:02:31.368Z,22.85
2019-02-26T06:04:59.761Z,24.95
2019-02-26T06:07:31.291Z,22.48
2019-02-26T06:09:59.216Z,23.67
2019-02-26T06:12:27.964Z,23.77
2019-02-26T06:15:00.308Z,21.42
2019-02-26T06:17:26.729Z,23.77
2019-02-26T06:19:59.357Z,23.30
2019-02-26T06:22:29.228Z,23.45
2019-02-26T06:24:59.606Z,23.35
2019-02-26T06:27:27.520Z,21.33
2019-02-26T06:29:58.186Z,21.35
2019-02-26T06:32:29.981Z,21.20
2019-02-26T06:34:56.464Z,23.90
2019-02-26T06:37:24.851Z,22.55
2019-02-26T06:39:55.609Z,25.10
2019-02-26T06:42:23.336Z,23.83
2019-02-26T06:44:52.052Z,23.05
2019-02-26T06:47:21.140Z,28.30
2019-02-26T06:49:52.567Z,25.32
2019-02-26T06:52:20.681Z,24.02
2019-02-26T06:54:54.834Z,22.17
2019-02-26T06:57:19.118Z,24.23
2019-02-26T06:59:47.536Z,24.87
2019-02-26T07:02:16.217Z,24.55
2019-02-26T07:04:44.619Z,29.25
2019-02-26T07:07:14.473Z,27.48
2019-02-26T07:09:43.928Z,22.98
2019-02-26T07:12:14.446Z,25.75
2019-02-26T07:14:42.460Z,28.05
2019-02-26T07:17:10.861Z,25.15
2019-02-26T07:19:39.248Z,25.85
2019-02-26T07:22:10.908Z,32.55
2019-02-26T07:24:38.739Z,23.85
2019-02-26T07:27:09.005Z,29.55
2019-02-26T07:29:40.008Z,37.15
2019-02-26T07:32:07.267Z,36.08
2019-02-26T07:34:35.686Z,34.78
2019-02-26T07:37:06.400Z,34.30
2019-02-26T07:39:34.705Z,38.65
2019-02-26T07:42:03.084Z,38.55
2019-02-26T07:44:31.570Z,48.05
2019-02-26T07:47:00.897Z,49.40
2019-02-26T07:49:30.062Z,53.70
2019-02-26T07:52:00.356Z,49.63
2019-02-26T07:54:28.995Z,48.55
2019-02-26T07:56:59.563Z,37.75
2019-02-26T07:59:28.013Z,40.00
2019-02-26T08:01:57.523Z,37.73
2019-02-26T08:04:25.942Z,39.98
2019-02-26T08:06:56.842Z,36.93
2019-02-26T08:09:24.467Z,38.60
2019-02-26T08:11:52.870Z,36.88
2019-02-26T08:14:23.193Z,31.23
2019-02-26T08:16:53.567Z,31.82
2019-02-26T08:19:21.404Z,30.05
2019-02-26T08:21:50.342Z,31.93
2019-02-26T08:24:23.838Z,30.95
2019-02-26T08:26:49.871Z,29.98
2019-02-26T08:29:18.260Z,29.52
2019-02-26T08:31:47.463Z,28.05
2019-02-26T08:34:16.710Z,30.15
2019-02-26T08:36:46.800Z,31.40
2019-02-26T08:39:15.890Z,29.45
2019-02-26T08:41:56.158Z,29.37
2019-02-26T08:44:24.571Z,29.55
2019-02-26T08:46:52.979Z,26.37
2019-02-26T08:49:22.550Z,27.85
2019-02-26T08:51:50.985Z,26.85
2019-02-26T08:54:21.227Z,26.43
2019-02-26T08:56:49.445Z,25.88
2019-02-26T08:59:20.046Z,26.82
2019-02-26T09:01:48.187Z,25.47
2019-02-26T09:04:17.474Z,25.53
2019-02-26T09:06:46.656Z,23.20
2019-02-26T09:09:15.366Z,22.97
2019-02-26T09:11:44.065Z,22.90
2019-02-26T09:14:14.153Z,22.97
2019-02-26T09:16:42.558Z,23.60
2019-02-26T09:19:11.297Z,22.10
2019-02-26T09:21:42.521Z,23.57
2019-02-26T09:24:09.794Z,20.40
2019-02-26T09:26:38.198Z,21.67
2019-02-26T09:29:06.612Z,20.70
2019-02-26T09:31:35.029Z,19.63
2019-02-26T09:34:03.443Z,20.13
2019-02-26T09:36:31.823Z,19.47
2019-02-26T09:39:00.234Z,19.57
2019-02-26T09:41:28.646Z,18.13
2019-02-26T09:43:59.359Z,19.60
2019-02-26T09:46:27.513Z,17.47
2019-02-26T09:48:57.435Z,18.47
2019-02-26T09:51:25.954Z,18.10
2019-02-26T09:53:56.453Z,18.73
2019-02-26T09:56:24.405Z,18.17
2019-02-26T09:58:52.802Z,18.50
2019-02-26T10:01:21.183Z,19.00
2019-02-26T10:03:49.619Z,16.83
2019-02-26T10:06:19.256Z,17.07
2019-02-26T10:08:48.946Z,16.83
2019-02-26T10:11:18.874Z,15.03
2019-02-26T10:13:49.376Z,15.47
2019-02-26T10:16:18.189Z,16.43
2019-02-26T10:18:47.406Z,15.47
2019-02-26T10:21:18.263Z,16.60
2019-02-26T10:23:49.275Z,15.47
2019-02-26T10:26:17.068Z,15.40
2019-02-26T10:28:50.948Z,14.03
2019-02-26T10:31:15.795Z,13.83
2019-02-26T10:33:46.347Z,13.97
2019-02-26T10:36:16.531Z,12.77
2019-02-26T10:38:44.307Z,13.90
2019-02-26T10:41:12.692Z,13.50
2019-02-26T10:43:41.585Z,13.87
2019-02-26T10:46:09.997Z,13.40
2019-02-26T10:48:38.414Z,13.20
2019-02-26T10:51:07.318Z,14.07
2019-02-26T10:53:35.673Z,13.73
2019-02-26T10:56:04.069Z,13.43
2019-02-26T10:58:32.445Z,14.30
2019-02-26T11:01:02.467Z,14.10
2019-02-26T11:03:35.326Z,13.13
2019-02-26T11:06:00.977Z,11.90
2019-02-26T11:08:31.810Z,13.57
2019-02-26T11:10:59.676Z,13.30
2019-02-26T11:13:28.080Z,13.30
2019-02-26T11:15:59.008Z,12.33
2019-02-26T11:18:26.507Z,12.23
2019-02-26T11:20:56.013Z,12.47
2019-02-26T11:23:30.957Z,12.93
2019-02-26T11:25:55.307Z,12.97
2019-02-26T11:28:27.253Z,10.77
2019-02-26T11:30:54.973Z,9.53
2019-02-26T11:33:24.195Z,11.03
2019-02-26T11:35:53.525Z,11.53
2019-02-26T11:38:22.320Z,11.07
2019-02-26T11:40:50.836Z,11.33
2019-02-26T11:43:20.911Z,11.07
2019-02-26T11:45:49.563Z,10.23
2019-02-26T11:48:17.994Z,9.47
2019-02-26T11:50:46.424Z,9.50
2019-02-26T11:53:14.799Z,9.73
2019-02-26T11:55:43.202Z,9.57
2019-02-26T11:58:15.398Z,9.97
2019-02-26T12:00:50.677Z,9.77
2019-02-26T12:03:22.889Z,9.87
2019-02-26T12:05:49.335Z,8.83
2019-02-26T12:08:21.863Z,8.43
2019-02-26T12:10:47.773Z,9.50
2019-02-26T12:13:17.107Z,10.23
2019-02-26T12:15:46.471Z,9.43
2019-02-26T12:18:16.867Z,9.07
2019-02-26T12:20:48.025Z,9.97
2019-02-26T12:23:16.151Z,10.00
2019-02-26T12:25:44.987Z,10.07
2019-02-26T12:28:13.778Z,9.53
2019-02-26T12:30:44.749Z,9.13
2019-02-26T12:33:14.346Z,9.30
2019-02-26T12:35:43.709Z,8.57
2019-02-26T12:38:18.213Z,9.17
2019-02-26T12:40:46.395Z,9.13
2019-02-26T12:43:15.621Z,10.90
2019-02-26T12:45:42.597Z,8.87
2019-02-26T12:48:15.617Z,9.83
2019-02-26T12:50:41.047Z,9.43
2019-02-26T12:53:12.504Z,9.63
2019-02-26T12:55:42.275Z,9.27
2019-02-26T12:58:14.320Z,9.83
2019-02-26T13:00:42.108Z,9.77
2019-02-26T13:03:12.805Z,10.03
2019-02-26T13:05:42.257Z,9.63
2019-02-26T13:08:13.471Z,9.20
2019-02-26T13:10:42.290Z,10.43
2019-02-26T13:13:10.935Z,9.87
2019-02-26T13:15:39.534Z,9.93
2019-02-26T13:18:07.937Z,10.10
2019-02-26T13:20:36.327Z,10.20
2019-02-26T13:23:17.142Z,9.60
2019-02-26T13:25:34.834Z,8.70
2019-02-26T13:28:03.261Z,9.13
2019-02-26T13:30:31.621Z,8.33
2019-02-26T13:33:04.228Z,9.00
2019-02-26T13:35:30.074Z,9.33
2019-02-26T13:38:00.012Z,7.80
2019-02-26T13:40:28.399Z,7.60
2019-02-26T13:45:27.542Z,9.23
2019-02-26T13:48:01.047Z,9.63
2019-02-26T13:50:27.748Z,8.83
2019-02-26T13:52:56.363Z,9.30
2019-02-26T13:55:24.735Z,8.97
2019-02-26T13:57:53.277Z,9.17
2019-02-26T14:00:26.347Z,8.80
2019-02-26T14:02:51.714Z,9.27
2019-02-26T14:05:20.360Z,9.33
2019-02-26T14:07:48.785Z,8.80
2019-02-26T14:10:22.319Z,8.97
2019-02-26T14:12:50.708Z,9.33
2019-02-26T14:15:20.940Z,8.90
2019-02-26T14:17:49.563Z,8.53
2019-02-26T14:20:17.930Z,9.83
2019-02-26T14:22:46.337Z,9.63
2019-02-26T14:25:14.830Z,9.00
2019-02-26T14:27:43.265Z,9.53
2019-02-26T14:30:18.761Z,8.43
2019-02-26T14:32:47.175Z,8.43
2019-02-26T14:35:15.914Z,8.87
2019-02-26T14:37:44.659Z,9.00
2019-02-26T14:40:17.813Z,7.83
2019-02-26T14:42:46.183Z,8.03
2019-02-26T14:45:19.444Z,8.87
2019-02-26T14:47:47.891Z,8.37
2019-02-26T14:50:21.165Z,8.43
2019-02-26T14:52:49.540Z,8.53
2019-02-26T14:55:18.081Z,8.90
2019-02-26T14:57:46.548Z,8.27
2019-02-26T15:00:17.992Z,8.73
2019-02-26T15:02:46.574Z,9.13
2019-02-26T15:05:15.599Z,9.57
2019-02-26T15:07:43.974Z,9.70
2019-02-26T15:10:12.682Z,9.63
2019-02-26T15:12:41.090Z,8.80
2019-02-26T15:15:18.877Z,8.70
2019-02-26T15:17:47.623Z,8.83
2019-02-26T15:20:21.030Z,9.00
2019-02-26T15:22:49.565Z,7.53
2019-02-26T15:25:21.472Z,7.13
2019-02-26T15:27:49.886Z,6.30
2019-02-26T15:30:19.722Z,6.30
2019-02-26T15:32:48.163Z,6.63
2019-02-26T15:35:16.805Z,7.07
2019-02-26T15:37:45.229Z,7.33
2019-02-26T15:40:17.327Z,8.10
2019-02-26T15:42:45.706Z,7.90
2019-02-26T15:45:25.277Z,7.47
2019-02-26T15:47:53.710Z,7.23
2019-02-26T15:50:22.349Z,7.33
2019-02-26T15:52:52.974Z,7.13
2019-02-26T15:55:25.867Z,7.63
2019-02-26T15:57:55.481Z,7.00
2019-02-26T16:00:24.642Z,7.03
2019-02-26T16:02:53.545Z,20.70
2019-02-26T16:05:24.296Z,30.60
2019-02-26T16:07:52.731Z,78.53
2019-02-26T16:10:22.211Z,21.33
2019-02-26T16:12:51.230Z,14.70
2019-02-26T16:15:19.677Z,12.60
2019-02-26T16:17:48.019Z,14.53
2019-02-26T16:20:22.158Z,15.10
2019-02-26T16:22:50.519Z,13.10
2019-02-26T16:25:18.913Z,12.57
2019-02-26T16:27:47.288Z,13.37
2019-02-26T16:30:23.696Z,12.77
2019-02-26T16:32:52.369Z,13.27
2019-02-26T16:35:24.764Z,12.27
2019-02-26T16:37:50.810Z,11.63
2019-02-26T16:40:19.222Z,11.37
2019-02-26T16:42:48.259Z,11.93
2019-02-26T16:45:21.902Z,10.83
2019-02-26T16:47:50.373Z,11.10
2019-02-26T16:50:21.301Z,11.93
2019-02-26T16:52:49.747Z,12.57
2019-02-26T16:55:18.272Z,16.00
2019-02-26T16:57:46.809Z,15.00
2019-02-26T17:00:25.704Z,17.13
2019-02-26T17:02:54.149Z,16.40
2019-02-26T17:05:22.592Z,17.13
2019-02-26T17:07:51.245Z,17.73
2019-02-26T17:10:20.675Z,17.87
2019-02-26T17:12:53.482Z,17.67
2019-02-26T17:15:32.000Z,18.93
2019-02-26T17:18:00.397Z,17.23
2019-02-26T17:20:28.793Z,18.60
2019-02-26T17:22:57.180Z,18.33
2019-02-26T17:25:28.399Z,18.93
2019-02-26T17:27:55.616Z,20.30
2019-02-26T17:30:24.675Z,18.33
2019-02-26T17:32:53.275Z,17.63
2019-02-26T17:35:21.649Z,18.50
2019-02-26T17:37:50.101Z,18.93
2019-02-26T17:40:23.604Z,18.13
2019-02-26T17:42:52.289Z,18.63
2019-02-26T17:45:27.857Z,18.47
2019-02-26T17:47:57.404Z,17.87
2019-02-26T17:50:28.486Z,17.77
2019-02-26T17:52:56.856Z,19.37
2019-02-26T17:55:25.439Z,18.43
2019-02-26T17:57:53.951Z,18.10
2019-02-26T18:00:24.930Z,19.23
2019-02-26T18:02:53.312Z,18.50
2019-02-26T18:05:21.725Z,17.80
2019-02-26T18:07:50.108Z,17.63
2019-02-26T18:10:23.885Z,18.43
2019-02-26T18:12:53.935Z,18.13
2019-02-26T18:15:22.807Z,19.07
2019-02-26T18:17:51.192Z,18.37
2019-02-26T18:20:21.624Z,18.93
2019-02-26T18:22:51.395Z,19.73
2019-02-26T18:25:23.498Z,19.83
2019-02-26T18:27:51.841Z,20.20
2019-02-26T18:30:24.495Z,20.73
2019-02-26T18:32:55.684Z,21.43
2019-02-26T18:35:23.012Z,19.57
2019-02-26T18:37:51.440Z,20.10
2019-02-26T18:40:19.888Z,20.80
2019-02-26T18:42:48.635Z,20.43
2019-02-26T18:45:28.716Z,19.03
2019-02-26T18:47:57.469Z,20.50
2019-02-26T18:50:28.453Z,20.10
2019-02-26T18:52:58.171Z,20.43
2019-02-26T18:55:28.329Z,21.10
2019-02-26T18:57:57.159Z,20.70
2019-02-26T19:00:27.952Z,19.63
2019-02-26T19:02:56.345Z,19.03
2019-02-26T19:05:24.743Z,19.97
2019-02-26T19:07:53.113Z,20.47
2019-02-26T19:10:21.571Z,18.93
2019-02-26T19:12:49.980Z,20.43
2019-02-26T19:15:34.874Z,20.90
2019-02-26T19:18:03.472Z,19.00
2019-02-26T19:20:39.374Z,18.97
2019-02-26T19:23:07.770Z,18.83
2019-02-26T19:25:36.108Z,18.87
2019-02-26T19:28:04.599Z,21.00
2019-02-26T19:30:36.737Z,20.60
2019-02-26T19:33:03.589Z,21.33
2019-02-26T19:35:34.796Z,21.30
2019-02-26T19:38:03.616Z,22.27
2019-02-26T19:40:40.660Z,21.13
2019-02-26T19:43:09.985Z,21.90
2019-02-26T19:45:38.386Z,21.20
2019-02-26T19:48:06.810Z,21.30
2019-02-26T19:50:35.215Z,22.43
2019-02-26T19:53:03.647Z,22.33
2019-02-26T19:55:34.671Z,21.97
2019-02-26T19:58:06.542Z,22.37
2019-02-26T20:00:33.211Z,20.63
2019-02-26T20:03:04.791Z,23.80
2019-02-26T20:05:31.646Z,21.57
2019-02-26T20:08:04.782Z,22.00
2019-02-26T20:10:30.430Z,22.97
2019-02-26T20:13:00.805Z,20.80
2019-02-26T20:15:30.389Z,20.13
2019-02-26T20:17:59.324Z,20.17
2019-02-26T20:20:28.013Z,19.90
2019-02-26T20:22:56.409Z,21.03
2019-02-26T20:25:25.081Z,22.97
2019-02-26T20:27:54.858Z,21.47
2019-02-26T20:30:27.128Z,21.47
2019-02-26T20:32:55.563Z,22.60
2019-02-26T20:35:24.000Z,22.73
2019-02-26T20:37:52.390Z,21.17
2019-02-26T20:40:22.995Z,21.40
2019-02-26T20:42:51.357Z,23.23
2019-02-26T20:45:22.548Z,26.40
2019-02-26T20:47:51.730Z,21.10
2019-02-26T20:50:21.425Z,20.30
2019-02-26T20:52:51.579Z,21.63
2019-02-26T20:55:31.139Z,22.87
2019-02-26T20:57:59.541Z,22.20
2019-02-26T21:00:27.936Z,23.70
2019-02-26T21:02:56.329Z,21.93
2019-02-26T21:05:25.174Z,22.10
2019-02-26T21:07:58.093Z,26.80
2019-02-26T21:10:23.680Z,22.63
2019-02-26T21:12:52.086Z,22.10
2019-02-26T21:15:24.659Z,22.47
2019-02-26T21:17:53.054Z,23.97
2019-02-26T21:20:21.766Z,22.87
2019-02-26T21:22:50.144Z,20.87
2019-02-26T21:25:18.547Z,22.40
2019-02-26T21:27:46.939Z,23.17
2019-02-26T21:30:19.842Z,21.10
2019-02-26T21:32:48.231Z,23.00
2019-02-26T21:35:19.900Z,20.97
2019-02-26T21:37:48.298Z,22.10
2019-02-26T21:40:17.013Z,21.23
2019-02-26T21:42:45.414Z,23.10
2019-02-26T21:45:16.183Z,22.63
2019-02-26T21:47:44.787Z,20.53
2019-02-26T21:50:16.206Z,22.70
2019-02-26T21:52:59.026Z,21.80
2019-02-26T21:55:17.628Z,22.50
2019-02-26T21:57:46.016Z,22.90
2019-02-26T22:00:20.259Z,24.03
2019-02-26T22:02:51.961Z,22.47
2019-02-26T22:05:18.832Z,22.23
2019-02-26T22:07:47.245Z,23.30
2019-02-26T22:10:18.035Z,24.10
2019-02-26T22:12:46.452Z,23.63
2019-02-26T22:15:15.968Z,22.80
2019-02-26T22:17:44.433Z,23.63
2019-02-26T22:20:22.009Z,23.90
2019-02-26T22:22:45.459Z,22.83
2019-02-26T22:25:17.013Z,23.63
2019-02-26T22:27:43.997Z,22.37
2019-02-26T22:30:15.660Z,24.40
2019-02-26T22:32:44.080Z,23.47
2019-02-26T22:35:12.450Z,22.10
2019-02-26T22:37:41.480Z,20.80
2019-02-26T22:40:14.307Z,23.43
2019-02-26T22:42:42.729Z,22.73
2019-02-26T22:45:12.774Z,21.12
2019-02-26T22:47:41.554Z,23.12
2019-02-26T22:50:16.426Z,22.02
2019-02-26T22:52:44.841Z,21.43
2019-02-26T22:55:16.620Z,22.00
2019-02-26T22:57:44.121Z,21.50
2019-02-26T23:00:48.374Z,21.30
2019-02-26T23:03:14.287Z,22.87
2019-02-26T23:05:42.690Z,23.47
2019-02-26T23:08:11.861Z,20.75
2019-02-26T23:10:40.796Z,24.70
2019-02-26T23:13:09.267Z,22.00
2019-02-26T23:15:37.735Z,25.32
2019-02-26T23:18:06.212Z,23.10
2019-02-26T23:20:34.662Z,23.15
2019-02-26T23:23:03.052Z,21.25
2019-02-26T23:25:33.673Z,22.62
2019-02-26T23:28:01.481Z,21.20
2019-02-26T23:30:30.172Z,22.48
2019-02-26T23:32:58.581Z,21.57
2019-02-26T23:35:26.983Z,22.25
2019-02-26T23:37:55.372Z,24.65
2019-02-26T23:40:24.882Z,21.85
2019-02-26T23:42:54.075Z,22.80
2019-02-26T23:45:24.234Z,21.75
2019-02-26T23:47:52.521Z,21.42
2019-02-26T23:50:20.950Z,21.97
2019-02-26T23:52:49.349Z,21.82
2019-02-26T23:55:18.032Z,21.17
2019-02-26T23:57:46.690Z,21.82
